Deering, North Dakota
Current Conditions -  °F | °C
As of 7:58 PM on Saturday 25 Oct 2014 (Local Time) from KMIB Reporting Station
Clear Clear  
Wind Chill: 40°   Ceiling: Unl
Heat Index: 44°   Visibility: 10mi
Dew Point: 30°   Wind: 7mph
Humidity: 58%   Direction: 150°SSE
Pressure: 29.96"   Gusts: NA
Location:  48.4°N, 101.05°W
Report Text: KMIB 260058Z AUTO 15006KT 10SM CLR 07/M01 A2996 RMK AO2 SLP165 T00681009 $
Loading
Personal Weather Stations






























Interactive Weather Map
Tropical Storm Tracking
New forecast layout! Learn more

10-Day Weather Forecast

Advertisements
Track Severe Weather on mobile